Time;durP1;ratioP1;P1;durP2;ratioP2;P2;SDS_P1;SDS_P2;PMS_P1;PMS_P2;Temp;Humidity;BMP_temperature;BMP_pressure;BME280_temperature;BME280_humidity;BME280_pressure;Samples;Min_cycle;Max_cycle;Signal;HPM_P1;HPM_P2
2023/07/17 00:01:24;;;;;;;4.20;3.80;;;21.50;74.00;;;;;;5135754;27;20156;-83
2023/07/17 00:03:50;;;;;;;4.05;3.60;;;21.50;74.00;;;;;;5136368;27;20152;-82
2023/07/17 00:06:16;;;;;;;4.30;3.90;;;21.50;74.10;;;;;;5136598;27;20156;-87
2023/07/17 00:08:43;;;;;;;4.25;3.85;;;21.50;74.20;;;;;;5136245;27;20183;-81
2023/07/17 00:11:09;;;;;;;4.20;3.80;;;21.40;74.10;;;;;;5135173;27;20650;-84
2023/07/17 00:13:35;;;;;;;4.13;3.72;;;21.50;74.10;;;;;;5134951;27;20200;-84
2023/07/17 00:16:01;;;;;;;4.38;3.97;;;21.40;74.10;;;;;;5135358;27;20151;-86
2023/07/17 00:18:30;;;;;;;4.38;3.97;;;21.50;74.10;;;;;;5117905;27;20239;-82
2023/07/17 00:20:57;;;;;;;4.32;3.92;;;21.50;74.90;;;;;;5118491;27;20544;-83
2023/07/17 00:23:23;;;;;;;4.72;4.20;;;21.50;74.00;;;;;;5134760;27;20155;-84
2023/07/17 00:25:49;;;;;;;4.00;3.65;;;21.50;74.10;;;;;;5118334;27;20594;-86
2023/07/17 00:28:15;;;;;;;4.85;3.88;;;21.50;73.90;;;;;;5134577;27;20211;-83
2023/07/17 00:30:42;;;;;;;4.32;3.92;;;21.50;73.90;;;;;;5134343;27;20151;-84
2023/07/17 00:33:09;;;;;;;4.57;4.10;;;21.40;74.00;;;;;;5134885;27;20144;-81
2023/07/17 00:35:35;;;;;;;4.15;3.75;;;21.50;74.00;;;;;;5117864;27;20182;-87
2023/07/17 00:38:01;;;;;;;4.32;3.70;;;21.50;74.00;;;;;;5134389;27;20163;-82
2023/07/17 00:40:27;;;;;;;4.07;3.67;;;21.50;74.10;;;;;;5136068;27;20156;-85
2023/07/17 00:43:08;;;;;;;4.10;3.70;;;21.50;74.00;;;;;;5135543;27;20160;-86
2023/07/17 00:45:34;;;;;;;4.60;3.90;;;21.50;74.00;;;;;;5117323;27;20560;-83
2023/07/17 00:48:00;;;;;;;4.15;3.75;;;21.40;73.80;;;;;;5135520;27;20227;-83
2023/07/17 00:50:26;;;;;;;4.30;3.90;;;21.50;73.90;;;;;;5133927;27;20247;-85
2023/07/17 00:52:52;;;;;;;4.47;4.07;;;21.50;73.80;;;;;;5116449;27;20227;-86
2023/07/17 00:55:18;;;;;;;4.45;3.92;;;21.50;73.80;;;;;;5134083;27;20162;-84
2023/07/17 00:57:44;;;;;;;4.07;3.67;;;21.50;73.80;;;;;;5133958;27;20234;-83
2023/07/17 01:00:12;;;;;;;3.63;3.33;;;21.50;74.00;;;;;;5134118;27;20633;-85
2023/07/17 01:02:39;;;;;;;4.40;3.97;;;21.50;73.90;;;;;;5133991;27;20239;-85
2023/07/17 01:05:05;;;;;;;4.40;3.80;;;21.40;73.90;;;;;;5116760;27;20160;-82
2023/07/17 01:07:31;;;;;;;4.25;3.85;;;21.50;74.00;;;;;;5135268;27;20156;-84
2023/07/17 01:09:57;;;;;;;4.32;3.80;;;21.50;74.00;;;;;;5133752;27;20152;-86
2023/07/17 01:12:23;;;;;;;4.18;3.78;;;21.50;73.90;;;;;;5134922;27;20176;-84
2023/07/17 01:14:49;;;;;;;4.30;3.90;;;21.40;73.80;;;;;;5133789;27;20653;-84
2023/07/17 01:17:16;;;;;;;4.53;3.88;;;21.50;73.80;;;;;;5133592;27;20672;-82
2023/07/17 01:19:45;;;;;;;4.22;3.83;;;21.50;73.80;;;;;;5134926;27;20156;-81
2023/07/17 01:22:20;;;;;;;4.47;4.07;;;21.40;73.80;;;;;;5116073;27;20179;-87
2023/07/17 01:24:47;;;;;;;4.03;3.63;;;21.50;73.90;;;;;;5133692;27;20520;-81
2023/07/17 01:27:13;;;;;;;4.22;3.83;;;21.40;73.90;;;;;;5117026;28;20239;-82
2023/07/17 01:29:42;;;;;;;4.78;3.90;;;21.40;73.90;;;;;;5133427;27;20151;-84
2023/07/17 01:32:08;;;;;;;4.20;3.80;;;21.40;73.90;;;;;;5116187;27;20298;-85
2023/07/17 01:34:35;;;;;;;3.88;3.50;;;21.40;74.00;;;;;;5116223;27;20199;-85
2023/07/17 01:37:01;;;;;;;4.22;3.83;;;21.40;73.90;;;;;;5116281;27;20166;-84
2023/07/17 01:39:27;;;;;;;4.30;3.90;;;21.50;74.00;;;;;;5133374;27;20193;-88
2023/07/17 01:41:53;;;;;;;4.35;3.95;;;21.50;74.00;;;;;;5133634;27;20195;-83
2023/07/17 01:44:19;;;;;;;4.30;3.85;;;21.40;74.00;;;;;;5134447;27;20613;-82
2023/07/17 01:46:45;;;;;;;4.47;4.05;;;21.40;73.90;;;;;;5133570;27;20155;-80
2023/07/17 01:49:12;;;;;;;4.20;3.80;;;21.40;74.00;;;;;;5134433;27;20151;-84
2023/07/17 01:51:38;;;;;;;4.53;3.90;;;21.40;73.90;;;;;;5132818;27;20318;-81
2023/07/17 01:54:04;;;;;;;4.68;3.47;;;21.40;74.00;;;;;;5134619;27;20234;-85
2023/07/17 01:56:29;;;;;;;4.15;3.75;;;21.50;74.10;;;;;;5133093;27;20216;-81
2023/07/17 01:58:55;;;;;;;4.40;4.00;;;21.40;74.00;;;;;;5134321;27;20152;-82
2023/07/17 02:01:21;;;;;;;4.50;3.70;;;21.40;73.80;;;;;;5134185;28;20159;-84
2023/07/17 02:03:47;;;;;;;4.28;3.88;;;21.50;73.80;;;;;;5132690;27;20632;-86
2023/07/17 02:06:13;;;;;;;4.25;3.85;;;21.40;73.70;;;;;;5134221;28;20246;-82
2023/07/17 02:08:39;;;;;;;4.28;3.88;;;21.50;73.70;;;;;;5133032;28;20195;-86
2023/07/17 02:11:05;;;;;;;4.18;3.78;;;21.40;73.70;;;;;;5132910;28;20536;-80
2023/07/17 02:13:31;;;;;;;3.90;3.50;;;21.40;73.70;;;;;;5134402;28;20606;-81
2023/07/17 02:15:57;;;;;;;4.32;3.92;;;21.40;73.80;;;;;;5134064;28;20151;-80
2023/07/17 02:18:23;;;;;;;4.60;4.18;;;21.40;73.70;;;;;;5116266;28;20568;-82
2023/07/17 02:20:50;;;;;;;4.30;3.90;;;21.40;73.70;;;;;;5132958;28;20159;-84
2023/07/17 02:23:16;;;;;;;4.25;3.85;;;21.40;73.70;;;;;;5132770;28;20216;-85
2023/07/17 02:25:42;;;;;;;4.53;4.10;;;21.40;73.80;;;;;;5115841;28;20255;-81
2023/07/17 02:28:09;;;;;;;4.30;3.75;;;21.40;73.80;;;;;;5115622;28;20167;-82
2023/07/17 02:30:35;;;;;;;4.10;3.70;;;21.40;73.70;;;;;;5132731;28;20251;-81
2023/07/17 02:33:01;;;;;;;4.55;4.15;;;21.50;73.80;;;;;;5132849;28;20235;-83
2023/07/17 02:35:27;;;;;;;4.15;3.75;;;21.50;73.80;;;;;;5132803;28;20155;-83
2023/07/17 02:37:53;;;;;;;4.47;3.72;;;21.40;73.70;;;;;;5132712;28;20201;-81
2023/07/17 02:40:18;;;;;;;4.25;3.85;;;21.40;73.70;;;;;;5132574;28;20171;-83
2023/07/17 02:42:44;;;;;;;4.32;3.90;;;21.40;73.70;;;;;;5115409;28;20178;-82
2023/07/17 02:45:10;;;;;;;4.43;3.55;;;21.40;73.80;;;;;;5134287;28;20610;-82
2023/07/17 02:47:36;;;;;;;4.20;3.80;;;21.40;73.50;;;;;;5115502;28;20609;-82
2023/07/17 02:50:04;;;;;;;5.07;4.00;;;21.40;73.60;;;;;;5139915;27;20210;-80
2023/07/17 02:52:34;;;;;;;4.20;3.80;;;21.40;73.80;;;;;;5119667;27;20577;-83
2023/07/17 02:55:02;;;;;;;4.20;3.80;;;21.40;73.80;;;;;;5135955;27;20171;-82
2023/07/17 02:57:28;;;;;;;4.47;3.88;;;21.40;73.90;;;;;;5154526;27;20551;-84
2023/07/17 02:59:54;;;;;;;6.43;4.13;;;21.40;73.80;;;;;;5154915;27;20312;-84
2023/07/17 03:02:20;;;;;;;3.72;3.42;;;21.40;74.60;;;;;;5119213;27;20174;-84
2023/07/17 03:04:46;;;;;;;4.38;3.70;;;21.40;73.80;;;;;;5154546;27;20151;-83
2023/07/17 03:07:12;;;;;;;4.13;3.72;;;21.40;73.80;;;;;;5154346;27;20155;-82
2023/07/17 03:09:38;;;;;;;4.32;3.92;;;21.40;73.70;;;;;;5118663;27;20249;-84
2023/07/17 03:12:04;;;;;;;4.28;3.80;;;21.40;73.60;;;;;;5136143;27;20182;-80
2023/07/17 03:14:30;;;;;;;4.00;3.60;;;21.40;73.60;;;;;;5154725;27;20595;-82
2023/07/17 03:16:56;;;;;;;4.10;3.70;;;21.30;73.60;;;;;;5139517;27;20194;-82
2023/07/17 03:19:22;;;;;;;4.00;3.60;;;21.40;73.70;;;;;;5157835;27;20154;-84
2023/07/17 03:21:48;;;;;;;3.92;3.60;;;21.40;73.70;;;;;;5139692;27;20159;-82
2023/07/17 03:24:14;;;;;;;4.50;4.03;;;21.40;73.70;;;;;;5157926;27;20147;-86
2023/07/17 03:26:40;;;;;;;4.25;3.85;;;21.40;73.70;;;;;;5122568;27;20613;-83
2023/07/17 03:29:08;;;;;;;4.28;3.88;;;21.40;73.70;;;;;;5139350;27;20154;-85
2023/07/17 03:31:33;;;;;;;4.40;3.88;;;21.40;73.60;;;;;;5139163;27;20279;-81
2023/07/17 03:33:59;;;;;;;3.70;3.40;;;21.40;73.60;;;;;;5139228;27;20150;-80
2023/07/17 03:36:25;;;;;;;3.95;3.55;;;21.40;73.50;;;;;;5139246;27;20151;-81
2023/07/17 03:38:51;;;;;;;4.10;3.67;;;21.40;73.50;;;;;;5138989;27;20586;-83
2023/07/17 03:41:20;;;;;;;4.40;4.00;;;21.40;73.60;;;;;;5157468;27;20568;-82
2023/07/17 03:43:46;;;;;;;4.28;3.88;;;21.40;73.60;;;;;;5157514;27;20147;-86
2023/07/17 03:46:13;;;;;;;4.07;3.50;;;21.40;73.40;;;;;;5138891;27;20166;-82
2023/07/17 03:48:39;;;;;;;4.40;4.00;;;21.40;73.40;;;;;;5139022;27;20155;-82
2023/07/17 03:51:05;;;;;;;4.20;3.50;;;21.40;73.50;;;;;;5138690;27;20557;-83
2023/07/17 03:53:31;;;;;;;4.28;3.88;;;21.40;73.50;;;;;;5138710;27;20608;-83
2023/07/17 03:55:57;;;;;;;4.10;3.70;;;21.40;73.50;;;;;;5138994;27;20226;-83
2023/07/17 03:58:23;;;;;;;4.03;3.63;;;21.40;73.40;;;;;;5121460;27;20163;-84
2023/07/17 04:00:49;;;;;;;5.38;4.03;;;21.40;73.40;;;;;;5139205;27;20162;-83
2023/07/17 04:03:15;;;;;;;4.50;4.10;;;21.40;73.40;;;;;;5138685;27;20632;-83
2023/07/17 04:05:41;;;;;;;3.90;3.50;;;21.50;73.30;;;;;;5138469;27;20162;-85
2023/07/17 04:08:07;;;;;;;4.30;3.90;;;21.50;73.20;;;;;;5157354;27;20162;-84
2023/07/17 04:10:33;;;;;;;4.13;3.70;;;21.50;73.20;;;;;;5138406;27;20163;-82
2023/07/17 04:12:59;;;;;;;4.32;3.92;;;21.50;73.00;;;;;;5121229;27;20165;-82
2023/07/17 04:15:25;;;;;;;4.05;3.65;;;21.50;73.00;;;;;;5156855;27;20193;-82
2023/07/17 04:17:51;;;;;;;4.70;4.20;;;21.50;73.00;;;;;;5156837;27;20203;-84
2023/07/17 04:20:19;;;;;;;5.20;3.90;;;21.50;73.00;;;;;;5120993;27;20206;-84
2023/07/17 04:22:45;;;;;;;4.15;3.75;;;21.50;73.00;;;;;;5121276;27;20174;-85
2023/07/17 04:25:10;;;;;;;4.00;3.63;;;21.50;73.10;;;;;;5138002;27;20151;-85
2023/07/17 04:27:36;;;;;;;4.45;4.00;;;21.50;73.20;;;;;;5156827;27;20508;-82
2023/07/17 04:30:03;;;;;;;4.15;3.75;;;21.40;73.20;;;;;;5138289;27;20226;-84
2023/07/17 04:32:29;;;;;;;4.43;3.65;;;21.40;73.20;;;;;;5137835;27;20533;-83
2023/07/17 04:34:56;;;;;;;3.92;3.50;;;21.40;73.20;;;;;;5156793;27;20233;-81
2023/07/17 04:37:22;;;;;;;4.13;3.72;;;21.40;73.20;;;;;;5120675;27;20609;-84
2023/07/17 04:39:48;;;;;;;4.25;3.80;;;21.50;73.30;;;;;;5156300;27;20179;-85
2023/07/17 04:42:14;;;;;;;4.40;4.00;;;21.40;73.30;;;;;;5138013;27;20403;-83
2023/07/17 04:44:40;;;;;;;4.07;3.67;;;21.40;73.00;;;;;;5137890;27;20237;-82
2023/07/17 04:47:06;;;;;;;4.57;4.18;;;21.40;73.00;;;;;;5156213;27;20184;-84
2023/07/17 04:49:32;;;;;;;4.18;3.78;;;21.40;73.20;;;;;;5120289;27;20559;-84
2023/07/17 04:51:58;;;;;;;4.03;3.60;;;21.40;74.00;;;;;;5120625;27;20186;-84
2023/07/17 04:54:23;;;;;;;4.13;3.72;;;21.40;73.20;;;;;;5156130;27;20551;-84
2023/07/17 04:56:50;;;;;;;4.32;3.72;;;21.40;73.20;;;;;;5137470;27;20169;-83
2023/07/17 04:59:16;;;;;;;5.10;3.90;;;21.40;73.20;;;;;;5120376;27;20246;-81
2023/07/17 05:01:42;;;;;;;4.10;3.70;;;21.50;73.30;;;;;;5120216;27;20534;-85
2023/07/17 05:04:08;;;;;;;4.32;3.75;;;21.40;73.20;;;;;;5137363;27;20163;-83
2023/07/17 05:06:34;;;;;;;4.63;3.95;;;21.40;73.00;;;;;;5120026;27;20162;-82
2023/07/17 05:09:00;;;;;;;4.57;4.10;;;21.40;73.00;;;;;;5155832;27;20192;-81
2023/07/17 05:11:25;;;;;;;4.43;4.00;;;21.40;73.00;;;;;;5137148;27;20238;-84
2023/07/17 05:13:51;;;;;;;4.20;3.80;;;21.40;72.90;;;;;;5155964;27;20147;-85
2023/07/17 05:16:17;;;;;;;4.63;3.75;;;21.40;72.80;;;;;;5137107;27;20155;-84
2023/07/17 05:18:43;;;;;;;5.07;4.00;;;21.40;72.50;;;;;;5155639;27;20245;-86
2023/07/17 05:21:09;;;;;;;4.28;3.53;;;21.50;72.50;;;;;;5137832;27;20171;-83
2023/07/17 05:23:35;;;;;;;4.30;3.90;;;21.50;72.70;;;;;;5137025;27;20179;-83
2023/07/17 05:26:03;;;;;;;4.75;4.15;;;21.50;72.40;;;;;;5120145;27;20201;-87
2023/07/17 05:28:29;;;;;;;4.00;3.60;;;21.50;72.30;;;;;;5137315;27;20174;-82
2023/07/17 05:30:56;;;;;;;4.70;4.20;;;21.50;72.30;;;;;;5120103;27;20209;-88
2023/07/17 05:33:22;;;;;;;4.28;3.83;;;21.60;72.30;;;;;;5137130;27;20283;-84
2023/07/17 05:35:48;;;;;;;4.40;3.70;;;21.60;72.10;;;;;;5155303;27;20166;-86
2023/07/17 05:38:14;;;;;;;4.72;3.90;;;21.60;71.90;;;;;;5136408;27;20147;-85
2023/07/17 05:40:40;;;;;;;3.75;3.40;;;21.70;72.70;;;;;;5155318;27;20151;-87
2023/07/17 05:43:07;;;;;;;4.30;3.53;;;21.60;71.80;;;;;;5136852;27;20238;-83
2023/07/17 05:45:33;;;;;;;4.10;3.63;;;21.60;71.60;;;;;;5155280;27;20143;-84
2023/07/17 05:47:59;;;;;;;3.75;3.15;;;21.50;71.50;;;;;;5155180;27;20155;-83
2023/07/17 05:50:25;;;;;;;3.65;3.25;;;21.60;71.40;;;;;;5115663;27;20712;-83
2023/07/17 05:52:51;;;;;;;3.80;3.20;;;21.70;71.00;;;;;;5116375;28;20188;-84
2023/07/17 05:55:17;;;;;;;3.45;3.08;;;21.70;70.90;;;;;;5133329;27;20200;-85
2023/07/17 05:57:43;;;;;;;3.50;3.17;;;21.70;70.40;;;;;;5133088;27;20170;-83
2023/07/17 06:00:14;;;;;;;3.15;2.85;;;21.70;70.60;;;;;;5133184;27;20151;-89
2023/07/17 06:02:41;;;;;;;3.50;3.20;;;21.80;70.40;;;;;;5133044;28;20194;-86
2023/07/17 06:05:08;;;;;;;4.00;3.05;;;21.80;70.00;;;;;;5133258;28;20247;-86
2023/07/17 06:07:34;;;;;;;3.20;2.90;;;21.80;70.00;;;;;;5133586;28;20167;-84
2023/07/17 06:10:00;;;;;;;3.22;2.90;;;21.90;69.70;;;;;;5134225;28;20203;-85
2023/07/17 06:12:30;;;;;;;3.35;2.97;;;21.80;69.60;;;;;;5132927;28;20552;-86
2023/07/17 06:14:55;;;;;;;3.20;2.92;;;21.80;69.40;;;;;;5098380;28;20206;-84
2023/07/17 06:17:22;;;;;;;3.20;2.90;;;21.80;69.50;;;;;;5133364;28;20203;-87
2023/07/17 06:19:48;;;;;;;2.90;2.60;;;21.70;69.40;;;;;;5132946;28;20181;-82
2023/07/17 06:22:14;;;;;;;4.05;2.70;;;21.90;69.50;;;;;;5134093;28;20632;-82
2023/07/17 06:24:40;;;;;;;3.35;2.95;;;21.80;69.10;;;;;;5134115;28;20147;-84
2023/07/17 06:27:06;;;;;;;3.05;2.75;;;21.80;70.10;;;;;;5134187;28;20528;-87
2023/07/17 06:29:32;;;;;;;3.15;2.80;;;21.80;69.30;;;;;;5132729;28;20170;-85
2023/07/17 06:31:58;;;;;;;3.40;3.10;;;21.80;69.00;;;;;;5134236;28;20187;-83
2023/07/17 06:34:23;;;;;;;3.22;2.53;;;21.80;69.00;;;;;;5132814;28;20314;-85
2023/07/17 06:36:50;;;;;;;3.42;3.10;;;21.80;68.90;;;;;;5115501;28;20185;-82
2023/07/17 06:39:16;;;;;;;3.25;2.75;;;21.80;69.00;;;;;;5132910;28;20190;-82
2023/07/17 06:41:42;;;;;;;3.25;2.75;;;21.80;69.10;;;;;;5132917;28;20499;-84
2023/07/17 06:44:08;;;;;;;2.58;2.38;;;21.70;69.20;;;;;;5133171;28;20224;-87
2023/07/17 06:46:34;;;;;;;3.05;2.50;;;21.80;69.00;;;;;;5133937;28;20382;-85
2023/07/17 06:49:04;;;;;;;3.13;2.80;;;21.70;68.90;;;;;;5132767;27;20152;-87
2023/07/17 06:51:31;;;;;;;2.90;2.40;;;21.80;69.00;;;;;;5118496;27;20241;-84
2023/07/17 06:53:57;;;;;;;2.90;2.60;;;21.70;68.90;;;;;;5137758;27;20156;-84
2023/07/17 06:56:23;;;;;;;3.00;2.67;;;21.70;68.70;;;;;;5136489;27;20193;-85
2023/07/17 06:58:53;;;;;;;3.15;2.85;;;21.80;68.70;;;;;;5136508;27;20616;-85
2023/07/17 07:01:19;;;;;;;3.08;2.78;;;21.70;68.80;;;;;;5101771;27;20232;-85
2023/07/17 07:03:45;;;;;;;2.92;2.67;;;21.80;68.70;;;;;;5136326;27;20151;-88
2023/07/17 07:06:10;;;;;;;3.20;2.90;;;21.70;68.60;;;;;;5136538;27;20175;-84
2023/07/17 07:08:36;;;;;;;3.50;2.65;;;21.70;68.50;;;;;;5136256;27;20162;-82
2023/07/17 07:11:04;;;;;;;2.83;2.58;;;21.70;68.70;;;;;;5119008;27;20210;-86
2023/07/17 07:13:30;;;;;;;3.17;2.72;;;21.70;68.80;;;;;;5137396;27;20144;-83
2023/07/17 07:15:56;;;;;;;2.75;2.55;;;21.60;68.70;;;;;;5136230;27;20174;-83
2023/07/17 07:18:22;;;;;;;3.45;2.90;;;21.60;68.80;;;;;;5119421;27;20160;-84
2023/07/17 07:20:51;;;;;;;2.85;2.65;;;21.70;68.50;;;;;;5137185;27;20154;-85
2023/07/17 07:23:17;;;;;;;2.97;2.65;;;21.70;68.40;;;;;;5136050;27;20148;-85
2023/07/17 07:25:43;;;;;;;2.53;2.28;;;21.70;68.50;;;;;;5118996;27;20536;-86
2023/07/17 07:28:11;;;;;;;2.67;2.47;;;21.70;68.40;;;;;;5135868;27;20155;-85
2023/07/17 07:30:41;;;;;;;2.97;2.70;;;21.70;68.50;;;;;;5118695;27;20147;-81
2023/07/17 07:33:07;;;;;;;3.15;2.63;;;21.60;68.50;;;;;;5084216;27;20637;-86
2023/07/17 07:35:33;;;;;;;2.70;2.50;;;21.70;68.30;;;;;;5135689;27;20158;-85
2023/07/17 07:37:59;;;;;;;2.70;2.50;;;21.70;68.10;;;;;;5137158;27;20248;-85
2023/07/17 07:40:29;;;;;;;2.88;2.60;;;21.70;68.00;;;;;;5136749;27;20173;-86
2023/07/17 07:42:55;;;;;;;2.42;2.22;;;21.70;68.10;;;;;;5100797;27;20187;-85
2023/07/17 07:45:21;;;;;;;3.10;2.80;;;21.70;67.90;;;;;;5118813;27;20163;-86
2023/07/17 07:47:47;;;;;;;2.80;2.55;;;21.70;68.10;;;;;;5135407;27;20159;-84
2023/07/17 07:50:13;;;;;;;2.67;2.40;;;21.70;68.10;;;;;;5135774;27;20626;-83
2023/07/17 07:52:39;;;;;;;2.45;2.20;;;21.80;68.00;;;;;;5135710;27;20234;-84
2023/07/17 07:55:05;;;;;;;2.78;2.58;;;21.70;68.00;;;;;;5135405;27;20166;-85
2023/07/17 07:57:35;;;;;;;3.22;2.85;;;21.70;67.80;;;;;;5118097;27;20164;-84
2023/07/17 08:00:02;;;;;;;3.13;2.83;;;21.70;67.80;;;;;;5100470;27;20183;-84
2023/07/17 08:02:28;;;;;;;3.00;2.65;;;21.70;67.80;;;;;;5134998;27;20162;-83
2023/07/17 08:04:53;;;;;;;2.95;2.60;;;21.80;68.00;;;;;;5135152;27;20155;-85
2023/07/17 08:07:19;;;;;;;2.40;2.20;;;21.80;68.00;;;;;;5136213;27;20637;-85
2023/07/17 08:09:45;;;;;;;2.83;2.63;;;21.70;67.60;;;;;;5136220;27;20163;-86
2023/07/17 08:12:11;;;;;;;3.05;2.53;;;21.80;67.80;;;;;;5118550;27;20652;-85
2023/07/17 08:14:37;;;;;;;2.92;2.30;;;21.80;67.70;;;;;;5134804;27;20208;-87
2023/07/17 08:17:07;;;;;;;2.95;2.65;;;21.80;67.60;;;;;;5136722;27;20186;-83
2023/07/17 08:19:33;;;;;;;2.80;2.60;;;21.70;67.30;;;;;;5118175;27;20649;-87
2023/07/17 08:21:59;;;;;;;3.00;2.60;;;21.80;67.20;;;;;;5136963;27;20176;-85
2023/07/17 08:24:25;;;;;;;2.50;2.30;;;21.80;67.00;;;;;;5137605;27;20497;-83
2023/07/17 08:26:51;;;;;;;2.50;2.30;;;21.80;67.10;;;;;;5136109;27;20191;-83
2023/07/17 08:29:17;;;;;;;2.58;2.38;;;21.80;66.90;;;;;;5135720;27;20502;-85
2023/07/17 08:31:43;;;;;;;2.85;2.45;;;21.80;67.00;;;;;;5136322;27;20187;-83
2023/07/17 08:34:13;;;;;;;2.80;2.50;;;21.80;66.60;;;;;;5136322;27;20698;-88
2023/07/17 08:36:39;;;;;;;2.75;2.53;;;21.80;66.80;;;;;;5099861;27;20181;-83
2023/07/17 08:39:05;;;;;;;2.55;2.35;;;21.90;66.60;;;;;;5134744;27;20152;-84
2023/07/17 08:41:31;;;;;;;2.90;2.60;;;21.90;66.70;;;;;;5135601;27;20166;-83
2023/07/17 08:43:57;;;;;;;2.50;2.30;;;21.80;66.80;;;;;;5135916;27;20151;-85
2023/07/17 08:46:23;;;;;;;2.65;2.40;;;21.80;66.80;;;;;;5117085;27;20234;-82
2023/07/17 08:48:49;;;;;;;2.50;2.30;;;21.90;66.50;;;;;;5134266;27;20618;-86
2023/07/17 08:51:15;;;;;;;2.50;2.30;;;21.80;66.70;;;;;;5134041;27;20254;-82
2023/07/17 08:53:45;;;;;;;2.80;2.40;;;21.80;66.70;;;;;;5117645;27;20163;-83
2023/07/17 08:56:12;;;;;;;2.67;2.47;;;21.80;66.40;;;;;;5135421;27;20139;-84
2023/07/17 08:58:38;;;;;;;2.60;2.40;;;21.80;66.40;;;;;;5116904;27;20164;-83
2023/07/17 09:01:05;;;;;;;2.80;2.60;;;21.80;66.40;;;;;;5135333;27;20155;-85
2023/07/17 09:03:32;;;;;;;2.25;2.05;;;21.80;66.40;;;;;;5119888;27;20189;-83
2023/07/17 09:06:01;;;;;;;2.40;2.20;;;21.80;66.10;;;;;;5137580;27;20234;-84
2023/07/17 09:08:29;;;;;;;2.72;2.50;;;21.80;65.90;;;;;;5120495;27;20250;-83
2023/07/17 09:11:07;;;;;;;2.40;2.20;;;21.80;66.00;;;;;;5136557;27;20172;-82
2023/07/17 09:13:41;;;;;;;2.30;2.10;;;21.90;65.80;;;;;;5135990;27;20179;-81
2023/07/17 09:16:12;;;;;;;2.45;2.22;;;21.90;65.40;;;;;;5137846;27;20593;-86
2023/07/17 09:18:39;;;;;;;2.20;2.00;;;21.90;65.20;;;;;;5137285;27;20147;-84
2023/07/17 09:21:04;;;;;;;2.40;2.20;;;21.90;65.50;;;;;;5137516;27;20159;-83
2023/07/17 09:23:38;;;;;;;2.38;2.17;;;21.90;65.60;;;;;;5134727;27;20178;-86
2023/07/17 09:26:04;;;;;;;2.38;2.17;;;21.90;65.40;;;;;;5134555;27;20148;-82
2023/07/17 09:28:30;;;;;;;2.53;2.33;;;21.90;65.60;;;;;;5134945;27;20159;-86
2023/07/17 09:31:03;;;;;;;2.33;2.13;;;21.90;65.60;;;;;;5117416;27;20202;-84
2023/07/17 09:33:29;;;;;;;2.90;2.63;;;21.90;65.30;;;;;;5134701;27;20231;-85
2023/07/17 09:35:56;;;;;;;2.20;1.98;;;21.90;65.40;;;;;;5116155;27;20164;-85
2023/07/17 09:38:25;;;;;;;2.40;2.20;;;21.90;65.00;;;;;;5133728;27;20598;-83
2023/07/17 09:40:51;;;;;;;2.25;2.05;;;22.00;65.90;;;;;;5133548;27;20468;-84
2023/07/17 09:43:30;;;;;;;2.25;2.05;;;22.00;65.00;;;;;;5116244;27;20656;-86
2023/07/17 09:45:58;;;;;;;2.63;1.90;;;22.00;64.70;;;;;;5100732;27;20163;-85
2023/07/17 09:48:24;;;;;;;3.60;1.90;;;22.00;64.60;;;;;;5134854;27;20148;-88
2023/07/17 09:50:50;;;;;;;2.72;2.20;;;22.00;64.30;;;;;;5129264;27;20231;-87
2023/07/17 09:53:20;;;;;;;3.67;2.45;;;22.00;64.60;;;;;;5102315;27;20179;-84
2023/07/17 09:55:46;;;;;;;2.33;2.13;;;22.00;64.70;;;;;;5100200;28;20197;-85
2023/07/17 09:58:12;;;;;;;2.42;2.22;;;22.00;64.60;;;;;;5135415;27;20529;-82
2023/07/17 10:00:43;;;;;;;2.88;2.35;;;22.00;64.80;;;;;;5137461;27;20152;-83
2023/07/17 10:03:14;;;;;;;2.40;2.20;;;21.90;64.70;;;;;;5098028;28;20188;-83
2023/07/17 10:05:40;;;;;;;4.03;2.10;;;22.00;64.70;;;;;;5114182;28;20284;-82
2023/07/17 10:08:11;;;;;;;3.17;2.05;;;22.00;64.50;;;;;;5115652;28;20159;-84
2023/07/17 10:10:39;;;;;;;2.53;2.28;;;22.10;64.20;;;;;;5097851;28;20183;-84
2023/07/17 10:13:06;;;;;;;2.50;2.30;;;22.00;64.10;;;;;;5116287;28;20211;-84
2023/07/17 10:15:32;;;;;;;2.90;2.22;;;22.10;64.00;;;;;;5117519;28;20164;-81
2023/07/17 10:17:58;;;;;;;3.78;2.30;;;22.10;64.00;;;;;;5117190;28;20328;-83
2023/07/17 10:20:25;;;;;;;2.20;2.00;;;22.10;63.80;;;;;;5096155;28;20189;-84
2023/07/17 10:22:51;;;;;;;2.22;2.03;;;22.10;63.60;;;;;;5114704;28;20148;-82
2023/07/17 10:25:25;;;;;;;3.25;2.00;;;22.10;63.70;;;;;;5116937;28;20621;-82
2023/07/17 10:27:57;;;;;;;2.50;2.00;;;22.10;63.50;;;;;;5118489;28;20578;-84
2023/07/17 10:30:30;;;;;;;4.22;2.42;;;22.00;63.40;;;;;;5118093;28;20191;-85
2023/07/17 10:33:05;;;;;;;2.50;2.30;;;22.10;63.50;;;;;;5116233;28;20234;-86
2023/07/17 10:35:52;;;;;;;6.85;2.80;;;22.10;63.50;;;;;;5117460;28;20481;-86
2023/07/17 10:38:22;;;;;;;3.50;2.15;;;22.10;63.40;;;;;;5117485;28;20176;-84
2023/07/17 10:40:48;;;;;;;3.13;2.15;;;22.10;63.20;;;;;;5117319;28;20580;-85
2023/07/17 10:43:18;;;;;;;2.33;2.13;;;22.10;63.30;;;;;;5117793;28;20675;-87
2023/07/17 10:45:46;;;;;;;3.40;2.15;;;22.10;63.00;;;;;;5116872;28;20187;-85
2023/07/17 10:48:18;;;;;;;3.92;2.40;;;22.10;63.00;;;;;;5100353;28;20593;-84
2023/07/17 10:50:50;;;;;;;2.70;1.95;;;22.10;63.00;;;;;;5099193;28;20276;-86
2023/07/17 10:53:16;;;;;;;2.22;2.03;;;22.10;62.80;;;;;;5117657;28;20567;-84
2023/07/17 10:55:42;;;;;;;2.58;2.17;;;22.10;62.80;;;;;;5115819;28;20225;-86
2023/07/17 10:58:08;;;;;;;2.30;2.10;;;22.10;62.70;;;;;;5100059;27;20221;-83
2023/07/17 11:00:34;;;;;;;2.10;2.00;;;22.10;62.40;;;;;;5115959;28;20156;-84
2023/07/17 11:03:00;;;;;;;2.10;1.90;;;22.10;62.40;;;;;;5116108;28;20164;-86
2023/07/17 11:05:29;;;;;;;3.63;2.05;;;22.20;62.40;;;;;;5117040;28;20156;-86
2023/07/17 11:07:58;;;;;;;1.90;1.80;;;22.20;62.40;;;;;;5064594;28;20188;-84
2023/07/17 11:10:24;;;;;;;2.50;2.30;;;22.10;62.30;;;;;;5116897;28;20243;-86
2023/07/17 11:12:50;;;;;;;2.08;1.88;;;22.10;62.20;;;;;;5116797;28;20188;-85
2023/07/17 11:15:16;;;;;;;2.50;2.22;;;22.10;62.00;;;;;;5131873;27;20155;-87
2023/07/17 11:17:43;;;;;;;2.10;1.92;;;22.20;62.20;;;;;;5124643;27;20223;-85
2023/07/17 11:20:10;;;;;;;3.65;2.20;;;22.20;62.60;;;;;;5137404;27;20155;-87
2023/07/17 11:22:40;;;;;;;2.30;2.10;;;22.20;62.90;;;;;;5137741;27;20208;-88
2023/07/17 11:25:07;;;;;;;2.00;1.80;;;22.20;63.10;;;;;;5119214;27;20257;-87
2023/07/17 11:27:32;;;;;;;1.95;1.75;;;22.20;63.60;;;;;;5118235;27;20159;-84
2023/07/17 11:29:58;;;;;;;1.90;1.80;;;22.20;64.00;;;;;;5115119;28;20228;-84
2023/07/17 11:32:26;;;;;;;2.95;2.00;;;22.20;64.10;;;;;;5115472;28;20192;-85
2023/07/17 11:34:54;;;;;;;1.80;1.70;;;22.10;64.20;;;;;;5115017;28;20235;-83
2023/07/17 11:37:37;;;;;;;1.92;1.77;;;22.20;64.80;;;;;;5115875;28;20159;-86
2023/07/17 11:40:06;;;;;;;2.30;2.03;;;22.20;64.40;;;;;;5116468;28;20152;-85
2023/07/17 11:42:55;;;;;;;1.77;1.67;;;22.20;64.90;;;;;;5115161;28;20188;-85
2023/07/17 11:45:27;;;;;;;2.00;1.83;;;22.20;65.10;;;;;;5137117;27;20159;-85
2023/07/17 11:47:53;;;;;;;2.00;1.75;;;22.20;65.00;;;;;;5100724;27;20540;-84
2023/07/17 11:50:20;;;;;;;1.83;1.70;;;22.20;65.40;;;;;;5135362;27;20294;-87
2023/07/17 11:52:47;;;;;;;1.92;1.77;;;22.20;65.20;;;;;;5135456;27;20189;-81
2023/07/17 11:55:13;;;;;;;1.85;1.55;;;22.20;64.90;;;;;;5136647;27;20158;-85
2023/07/17 11:57:39;;;;;;;1.65;1.55;;;22.20;65.20;;;;;;5136661;27;20195;-87
2023/07/17 12:00:06;;;;;;;2.25;2.05;;;22.20;65.40;;;;;;5118699;27;20533;-83
2023/07/17 12:02:32;;;;;;;1.80;1.70;;;22.10;65.00;;;;;;5134213;27;20215;-84
2023/07/17 12:05:04;;;;;;;2.05;1.85;;;22.10;65.80;;;;;;5135092;27;20187;-86
2023/07/17 12:07:30;;;;;;;1.80;1.70;;;22.10;65.50;;;;;;5117257;27;20207;-81
2023/07/17 12:09:56;;;;;;;2.30;2.10;;;22.10;65.40;;;;;;5136135;27;20663;-83
2023/07/17 12:12:22;;;;;;;1.88;1.77;;;22.10;65.40;;;;;;5135691;27;20187;-86
2023/07/17 12:14:48;;;;;;;2.33;1.95;;;22.00;65.60;;;;;;5136289;27;20204;-83
2023/07/17 12:17:14;;;;;;;1.77;1.67;;;22.10;65.40;;;;;;5135983;27;20148;-85
2023/07/17 12:19:41;;;;;;;1.95;1.77;;;22.20;65.30;;;;;;5136221;27;20155;-81
2023/07/17 12:22:07;;;;;;;1.80;1.70;;;22.10;65.40;;;;;;5135734;27;20204;-83
2023/07/17 12:24:33;;;;;;;1.70;1.60;;;22.10;65.50;;;;;;5135035;27;20151;-82
2023/07/17 12:26:59;;;;;;;1.95;1.80;;;22.00;66.10;;;;;;5136369;27;20159;-87
2023/07/17 12:29:25;;;;;;;2.00;1.90;;;21.90;66.40;;;;;;5134609;27;20159;-81
2023/07/17 12:31:53;;;;;;;2.00;1.80;;;21.80;67.20;;;;;;5135074;27;20202;-86
2023/07/17 12:34:19;;;;;;;1.65;1.55;;;21.70;67.80;;;;;;5134759;27;20590;-83
2023/07/17 12:36:44;;;;;;;2.03;1.83;;;21.70;68.30;;;;;;5134885;27;20155;-81
2023/07/17 12:39:12;;;;;;;1.90;1.80;;;21.60;68.30;;;;;;5136121;27;20176;-84
2023/07/17 12:41:38;;;;;;;2.17;1.98;;;21.60;68.60;;;;;;5117968;27;20148;-83
2023/07/17 12:44:04;;;;;;;1.70;1.60;;;21.50;68.80;;;;;;5117499;27;20216;-83
2023/07/17 12:46:30;;;;;;;1.70;1.60;;;21.50;69.20;;;;;;5135927;27;20632;-81